sensor_id;sensor_type;location;lat;lon;timestamp;P1;durP1;ratioP1;P2;durP2;ratioP2
43700;SDS011;58809;47.984;7.964;2023-03-17T00:01:50;2.85;;;2.38;;
43700;SDS011;58809;47.984;7.964;2023-03-17T00:04:55;3.63;;;2.47;;
43700;SDS011;58809;47.984;7.964;2023-03-17T00:07:57;5.10;;;2.75;;
43700;SDS011;58809;47.984;7.964;2023-03-17T00:11:04;3.90;;;2.45;;
43700;SDS011;58809;47.984;7.964;2023-03-17T00:14:06;2.90;;;2.08;;
43700;SDS011;58809;47.984;7.964;2023-03-17T00:17:08;2.67;;;2.17;;
43700;SDS011;58809;47.984;7.964;2023-03-17T00:20:25;2.95;;;2.40;;
43700;SDS011;58809;47.984;7.964;2023-03-17T00:23:29;5.18;;;2.42;;
43700;SDS011;58809;47.984;7.964;2023-03-17T00:26:30;3.90;;;2.42;;
43700;SDS011;58809;47.984;7.964;2023-03-17T00:29:32;4.30;;;2.17;;
43700;SDS011;58809;47.984;7.964;2023-03-17T00:32:33;3.25;;;2.60;;
43700;SDS011;58809;47.984;7.964;2023-03-17T00:35:35;3.10;;;1.88;;
43700;SDS011;58809;47.984;7.964;2023-03-17T00:38:41;3.42;;;2.15;;
43700;SDS011;58809;47.984;7.964;2023-03-17T00:41:43;2.67;;;2.22;;
43700;SDS011;58809;47.984;7.964;2023-03-17T00:44:44;2.38;;;2.08;;
43700;SDS011;58809;47.984;7.964;2023-03-17T00:47:47;2.45;;;1.75;;
43700;SDS011;58809;47.984;7.964;2023-03-17T00:50:50;3.58;;;2.03;;
43700;SDS011;58809;47.984;7.964;2023-03-17T00:53:51;2.45;;;1.95;;
43700;SDS011;58809;47.984;7.964;2023-03-17T00:56:53;3.75;;;2.20;;
43700;SDS011;58809;47.984;7.964;2023-03-17T00:59:55;2.95;;;2.10;;
43700;SDS011;58809;47.984;7.964;2023-03-17T01:02:57;3.30;;;2.33;;
43700;SDS011;58809;47.984;7.964;2023-03-17T01:06:00;3.28;;;2.03;;
43700;SDS011;58809;47.984;7.964;2023-03-17T01:12:08;3.08;;;1.90;;
43700;SDS011;58809;47.984;7.964;2023-03-17T01:15:13;4.03;;;2.20;;
43700;SDS011;58809;47.984;7.964;2023-03-17T01:18:15;3.45;;;2.20;;
43700;SDS011;58809;47.984;7.964;2023-03-17T01:21:18;2.97;;;1.92;;
43700;SDS011;58809;47.984;7.964;2023-03-17T01:24:20;3.35;;;2.33;;
43700;SDS011;58809;47.984;7.964;2023-03-17T01:27:22;2.55;;;1.73;;
43700;SDS011;58809;47.984;7.964;2023-03-17T01:30:26;2.35;;;1.40;;
43700;SDS011;58809;47.984;7.964;2023-03-17T01:33:29;3.83;;;1.63;;
43700;SDS011;58809;47.984;7.964;2023-03-17T01:36:30;2.58;;;1.63;;
43700;SDS011;58809;47.984;7.964;2023-03-17T01:39:32;5.20;;;2.10;;
43700;SDS011;58809;47.984;7.964;2023-03-17T01:42:34;2.85;;;2.33;;
43700;SDS011;58809;47.984;7.964;2023-03-17T01:49:21;3.10;;;1.90;;
43700;SDS011;58809;47.984;7.964;2023-03-17T01:52:30;3.42;;;1.98;;
43700;SDS011;58809;47.984;7.964;2023-03-17T01:55:34;3.28;;;2.30;;
43700;SDS011;58809;47.984;7.964;2023-03-17T01:58:36;2.35;;;1.75;;
43700;SDS011;58809;47.984;7.964;2023-03-17T02:01:40;2.38;;;1.75;;
43700;SDS011;58809;47.984;7.964;2023-03-17T02:04:44;3.15;;;2.20;;
43700;SDS011;58809;47.984;7.964;2023-03-17T02:07:46;3.50;;;2.17;;
43700;SDS011;58809;47.984;7.964;2023-03-17T02:10:48;4.28;;;2.20;;
43700;SDS011;58809;47.984;7.964;2023-03-17T02:13:50;2.53;;;1.70;;
43700;SDS011;58809;47.984;7.964;2023-03-17T02:16:54;3.47;;;2.15;;
43700;SDS011;58809;47.984;7.964;2023-03-17T02:20:08;2.33;;;2.10;;
43700;SDS011;58809;47.984;7.964;2023-03-17T02:23:14;5.00;;;2.53;;
43700;SDS011;58809;47.984;7.964;2023-03-17T02:26:19;3.72;;;2.22;;
43700;SDS011;58809;47.984;7.964;2023-03-17T02:29:24;2.33;;;1.95;;
43700;SDS011;58809;47.984;7.964;2023-03-17T02:32:26;2.28;;;2.08;;
43700;SDS011;58809;47.984;7.964;2023-03-17T02:35:29;3.10;;;2.40;;
43700;SDS011;58809;47.984;7.964;2023-03-17T02:38:31;2.58;;;2.08;;
43700;SDS011;58809;47.984;7.964;2023-03-17T02:41:34;4.28;;;2.17;;
43700;SDS011;58809;47.984;7.964;2023-03-17T02:44:36;1.88;;;1.50;;
43700;SDS011;58809;47.984;7.964;2023-03-17T02:47:38;2.40;;;1.80;;
43700;SDS011;58809;47.984;7.964;2023-03-17T02:50:40;2.13;;;1.70;;
43700;SDS011;58809;47.984;7.964;2023-03-17T02:53:41;3.20;;;1.70;;
43700;SDS011;58809;47.984;7.964;2023-03-17T02:56:43;2.25;;;1.70;;
43700;SDS011;58809;47.984;7.964;2023-03-17T02:59:45;2.45;;;1.80;;
43700;SDS011;58809;47.984;7.964;2023-03-17T03:02:46;3.63;;;1.80;;
43700;SDS011;58809;47.984;7.964;2023-03-17T03:05:48;2.40;;;1.80;;
43700;SDS011;58809;47.984;7.964;2023-03-17T03:08:50;2.75;;;2.03;;
43700;SDS011;58809;47.984;7.964;2023-03-17T03:11:52;2.60;;;1.45;;
43700;SDS011;58809;47.984;7.964;2023-03-17T03:14:54;2.22;;;1.30;;
43700;SDS011;58809;47.984;7.964;2023-03-17T03:17:55;1.50;;;1.33;;
43700;SDS011;58809;47.984;7.964;2023-03-17T03:20:57;2.65;;;1.45;;
43700;SDS011;58809;47.984;7.964;2023-03-17T03:23:58;3.03;;;1.73;;
43700;SDS011;58809;47.984;7.964;2023-03-17T03:27:00;2.45;;;1.65;;
43700;SDS011;58809;47.984;7.964;2023-03-17T03:30:02;3.72;;;2.10;;
43700;SDS011;58809;47.984;7.964;2023-03-17T03:33:04;5.57;;;3.47;;
43700;SDS011;58809;47.984;7.964;2023-03-17T03:36:06;4.43;;;2.17;;
43700;SDS011;58809;47.984;7.964;2023-03-17T03:39:09;3.55;;;1.73;;
43700;SDS011;58809;47.984;7.964;2023-03-17T03:42:14;2.72;;;2.10;;
43700;SDS011;58809;47.984;7.964;2023-03-17T03:45:16;2.20;;;1.55;;
43700;SDS011;58809;47.984;7.964;2023-03-17T03:48:18;3.53;;;2.08;;
43700;SDS011;58809;47.984;7.964;2023-03-17T03:51:19;3.22;;;2.42;;
43700;SDS011;58809;47.984;7.964;2023-03-17T03:54:21;4.15;;;2.17;;
43700;SDS011;58809;47.984;7.964;2023-03-17T03:57:22;4.00;;;2.60;;
43700;SDS011;58809;47.984;7.964;2023-03-17T04:00:24;3.53;;;1.90;;
43700;SDS011;58809;47.984;7.964;2023-03-17T04:03:26;2.50;;;2.13;;
43700;SDS011;58809;47.984;7.964;2023-03-17T04:06:28;4.80;;;2.45;;
43700;SDS011;58809;47.984;7.964;2023-03-17T04:09:29;2.72;;;2.28;;
43700;SDS011;58809;47.984;7.964;2023-03-17T04:12:31;3.60;;;2.58;;
43700;SDS011;58809;47.984;7.964;2023-03-17T04:15:32;4.00;;;2.92;;
43700;SDS011;58809;47.984;7.964;2023-03-17T04:18:34;4.43;;;2.25;;
43700;SDS011;58809;47.984;7.964;2023-03-17T04:21:36;4.43;;;2.78;;
43700;SDS011;58809;47.984;7.964;2023-03-17T04:24:37;3.80;;;2.38;;
43700;SDS011;58809;47.984;7.964;2023-03-17T04:27:39;3.25;;;2.30;;
43700;SDS011;58809;47.984;7.964;2023-03-17T04:30:42;5.07;;;3.03;;
43700;SDS011;58809;47.984;7.964;2023-03-17T04:33:43;2.95;;;2.28;;
43700;SDS011;58809;47.984;7.964;2023-03-17T04:36:45;4.53;;;2.95;;
43700;SDS011;58809;47.984;7.964;2023-03-17T04:39:48;6.00;;;2.30;;
43700;SDS011;58809;47.984;7.964;2023-03-17T04:42:49;3.38;;;2.15;;
43700;SDS011;58809;47.984;7.964;2023-03-17T04:45:51;3.67;;;2.03;;
43700;SDS011;58809;47.984;7.964;2023-03-17T04:48:52;4.47;;;2.00;;
43700;SDS011;58809;47.984;7.964;2023-03-17T04:51:54;2.47;;;1.80;;
43700;SDS011;58809;47.984;7.964;2023-03-17T04:54:56;3.13;;;2.10;;
43700;SDS011;58809;47.984;7.964;2023-03-17T04:57:57;3.38;;;2.42;;
43700;SDS011;58809;47.984;7.964;2023-03-17T05:00:59;3.53;;;2.05;;
43700;SDS011;58809;47.984;7.964;2023-03-17T05:04:02;3.97;;;2.42;;
43700;SDS011;58809;47.984;7.964;2023-03-17T05:07:04;2.63;;;2.03;;
43700;SDS011;58809;47.984;7.964;2023-03-17T05:10:06;3.05;;;2.55;;
43700;SDS011;58809;47.984;7.964;2023-03-17T05:13:08;4.70;;;2.40;;
43700;SDS011;58809;47.984;7.964;2023-03-17T05:16:09;4.88;;;2.97;;
43700;SDS011;58809;47.984;7.964;2023-03-17T05:19:11;4.50;;;2.08;;
43700;SDS011;58809;47.984;7.964;2023-03-17T05:22:13;4.45;;;2.75;;
43700;SDS011;58809;47.984;7.964;2023-03-17T05:25:14;3.10;;;2.22;;
43700;SDS011;58809;47.984;7.964;2023-03-17T05:28:17;3.58;;;2.65;;
43700;SDS011;58809;47.984;7.964;2023-03-17T05:31:21;5.07;;;2.78;;
43700;SDS011;58809;47.984;7.964;2023-03-17T05:34:23;5.80;;;2.15;;
43700;SDS011;58809;47.984;7.964;2023-03-17T05:37:24;3.45;;;1.85;;
43700;SDS011;58809;47.984;7.964;2023-03-17T05:40:26;4.57;;;2.63;;
43700;SDS011;58809;47.984;7.964;2023-03-17T05:43:27;4.78;;;1.58;;
43700;SDS011;58809;47.984;7.964;2023-03-17T05:46:29;4.63;;;2.75;;
43700;SDS011;58809;47.984;7.964;2023-03-17T05:49:30;2.55;;;1.67;;
43700;SDS011;58809;47.984;7.964;2023-03-17T05:52:32;2.13;;;1.90;;
43700;SDS011;58809;47.984;7.964;2023-03-17T05:55:33;3.33;;;2.17;;
43700;SDS011;58809;47.984;7.964;2023-03-17T05:58:35;7.40;;;3.08;;
43700;SDS011;58809;47.984;7.964;2023-03-17T06:01:37;3.47;;;3.15;;
43700;SDS011;58809;47.984;7.964;2023-03-17T06:04:38;7.45;;;2.92;;
43700;SDS011;58809;47.984;7.964;2023-03-17T06:07:40;4.97;;;2.80;;
43700;SDS011;58809;47.984;7.964;2023-03-17T06:10:53;5.90;;;3.40;;
43700;SDS011;58809;47.984;7.964;2023-03-17T06:13:55;4.32;;;3.53;;
43700;SDS011;58809;47.984;7.964;2023-03-17T06:16:56;4.22;;;3.13;;
43700;SDS011;58809;47.984;7.964;2023-03-17T06:19:58;4.65;;;3.00;;
43700;SDS011;58809;47.984;7.964;2023-03-17T06:22:59;5.25;;;4.28;;
43700;SDS011;58809;47.984;7.964;2023-03-17T06:26:05;9.07;;;4.60;;
43700;SDS011;58809;47.984;7.964;2023-03-17T06:29:07;4.00;;;3.13;;
43700;SDS011;58809;47.984;7.964;2023-03-17T06:32:10;6.45;;;4.32;;
43700;SDS011;58809;47.984;7.964;2023-03-17T06:35:21;5.70;;;4.10;;
43700;SDS011;58809;47.984;7.964;2023-03-17T06:38:23;7.38;;;4.53;;
43700;SDS011;58809;47.984;7.964;2023-03-17T06:41:25;7.47;;;4.65;;
43700;SDS011;58809;47.984;7.964;2023-03-17T06:44:27;4.85;;;3.63;;
43700;SDS011;58809;47.984;7.964;2023-03-17T06:47:29;5.65;;;3.15;;
43700;SDS011;58809;47.984;7.964;2023-03-17T06:50:31;7.55;;;3.80;;
43700;SDS011;58809;47.984;7.964;2023-03-17T06:53:32;6.57;;;3.92;;
43700;SDS011;58809;47.984;7.964;2023-03-17T06:56:34;5.22;;;4.20;;
43700;SDS011;58809;47.984;7.964;2023-03-17T06:59:36;8.20;;;3.78;;
43700;SDS011;58809;47.984;7.964;2023-03-17T07:02:38;6.30;;;4.15;;
43700;SDS011;58809;47.984;7.964;2023-03-17T07:05:39;7.47;;;3.83;;
43700;SDS011;58809;47.984;7.964;2023-03-17T07:08:41;7.32;;;4.97;;
43700;SDS011;58809;47.984;7.964;2023-03-17T07:11:42;8.55;;;4.30;;
43700;SDS011;58809;47.984;7.964;2023-03-17T07:14:44;5.85;;;4.35;;
43700;SDS011;58809;47.984;7.964;2023-03-17T07:17:46;7.22;;;3.80;;
43700;SDS011;58809;47.984;7.964;2023-03-17T07:20:48;6.93;;;3.80;;
43700;SDS011;58809;47.984;7.964;2023-03-17T07:23:49;6.95;;;4.05;;
43700;SDS011;58809;47.984;7.964;2023-03-17T07:26:51;5.60;;;4.03;;
43700;SDS011;58809;47.984;7.964;2023-03-17T07:29:53;7.75;;;4.22;;
43700;SDS011;58809;47.984;7.964;2023-03-17T07:32:54;8.10;;;4.60;;
43700;SDS011;58809;47.984;7.964;2023-03-17T07:35:57;6.20;;;5.10;;
43700;SDS011;58809;47.984;7.964;2023-03-17T07:38:59;8.70;;;6.45;;
43700;SDS011;58809;47.984;7.964;2023-03-17T07:42:06;11.15;;;6.95;;
43700;SDS011;58809;47.984;7.964;2023-03-17T07:45:07;7.78;;;5.60;;
43700;SDS011;58809;47.984;7.964;2023-03-17T07:48:11;6.65;;;3.88;;
43700;SDS011;58809;47.984;7.964;2023-03-17T07:51:14;3.40;;;2.88;;
43700;SDS011;58809;47.984;7.964;2023-03-17T07:54:17;5.85;;;2.97;;
43700;SDS011;58809;47.984;7.964;2023-03-17T07:57:19;3.30;;;2.15;;
43700;SDS011;58809;47.984;7.964;2023-03-17T08:00:21;4.05;;;3.10;;
43700;SDS011;58809;47.984;7.964;2023-03-17T08:03:23;5.03;;;3.58;;
43700;SDS011;58809;47.984;7.964;2023-03-17T08:06:25;5.70;;;2.90;;
43700;SDS011;58809;47.984;7.964;2023-03-17T08:09:27;4.65;;;3.22;;
43700;SDS011;58809;47.984;7.964;2023-03-17T08:12:29;4.55;;;2.63;;
43700;SDS011;58809;47.984;7.964;2023-03-17T08:15:30;6.82;;;3.10;;
43700;SDS011;58809;47.984;7.964;2023-03-17T08:18:32;5.32;;;2.95;;
43700;SDS011;58809;47.984;7.964;2023-03-17T08:21:34;3.83;;;2.50;;
43700;SDS011;58809;47.984;7.964;2023-03-17T08:24:36;9.85;;;2.50;;
43700;SDS011;58809;47.984;7.964;2023-03-17T08:27:38;3.97;;;2.28;;
43700;SDS011;58809;47.984;7.964;2023-03-17T08:30:40;2.58;;;1.55;;
43700;SDS011;58809;47.984;7.964;2023-03-17T08:33:44;2.88;;;1.67;;
43700;SDS011;58809;47.984;7.964;2023-03-17T08:36:49;2.67;;;1.63;;
43700;SDS011;58809;47.984;7.964;2023-03-17T08:39:50;2.70;;;1.63;;
43700;SDS011;58809;47.984;7.964;2023-03-17T08:42:52;3.53;;;2.35;;
43700;SDS011;58809;47.984;7.964;2023-03-17T08:45:59;5.68;;;2.30;;
43700;SDS011;58809;47.984;7.964;2023-03-17T08:49:26;3.95;;;2.10;;
43700;SDS011;58809;47.984;7.964;2023-03-17T08:52:28;4.28;;;2.60;;
43700;SDS011;58809;47.984;7.964;2023-03-17T08:55:30;4.80;;;2.70;;
43700;SDS011;58809;47.984;7.964;2023-03-17T08:58:33;4.10;;;3.10;;
43700;SDS011;58809;47.984;7.964;2023-03-17T09:01:35;11.25;;;3.55;;
43700;SDS011;58809;47.984;7.964;2023-03-17T09:04:38;9.18;;;3.80;;
43700;SDS011;58809;47.984;7.964;2023-03-17T09:07:40;5.47;;;3.40;;
43700;SDS011;58809;47.984;7.964;2023-03-17T09:10:43;5.40;;;2.85;;
43700;SDS011;58809;47.984;7.964;2023-03-17T09:13:47;5.05;;;3.22;;
43700;SDS011;58809;47.984;7.964;2023-03-17T09:16:49;4.70;;;2.78;;
43700;SDS011;58809;47.984;7.964;2023-03-17T09:19:51;4.57;;;2.88;;
43700;SDS011;58809;47.984;7.964;2023-03-17T09:22:52;4.28;;;2.65;;
43700;SDS011;58809;47.984;7.964;2023-03-17T09:25:54;3.40;;;2.45;;
43700;SDS011;58809;47.984;7.964;2023-03-17T09:28:56;6.07;;;3.17;;
43700;SDS011;58809;47.984;7.964;2023-03-17T09:31:58;5.00;;;2.78;;
43700;SDS011;58809;47.984;7.964;2023-03-17T09:35:00;6.45;;;2.58;;
43700;SDS011;58809;47.984;7.964;2023-03-17T09:38:02;3.40;;;2.55;;
43700;SDS011;58809;47.984;7.964;2023-03-17T09:41:25;3.90;;;2.67;;
43700;SDS011;58809;47.984;7.964;2023-03-17T09:44:51;5.25;;;3.00;;
43700;SDS011;58809;47.984;7.964;2023-03-17T09:51:13;5.28;;;3.10;;
43700;SDS011;58809;47.984;7.964;2023-03-17T09:54:25;5.93;;;3.85;;
43700;SDS011;58809;47.984;7.964;2023-03-17T09:57:32;7.10;;;3.60;;
43700;SDS011;58809;47.984;7.964;2023-03-17T10:00:36;5.05;;;3.70;;
43700;SDS011;58809;47.984;7.964;2023-03-17T10:03:38;7.05;;;3.75;;
43700;SDS011;58809;47.984;7.964;2023-03-17T10:06:43;5.20;;;4.20;;
43700;SDS011;58809;47.984;7.964;2023-03-17T10:09:57;7.72;;;4.10;;
43700;SDS011;58809;47.984;7.964;2023-03-17T10:16:17;6.77;;;4.47;;
43700;SDS011;58809;47.984;7.964;2023-03-17T10:19:23;6.75;;;3.80;;
43700;SDS011;58809;47.984;7.964;2023-03-17T10:22:36;8.32;;;4.40;;
43700;SDS011;58809;47.984;7.964;2023-03-17T10:25:43;5.10;;;3.70;;
43700;SDS011;58809;47.984;7.964;2023-03-17T10:28:45;7.22;;;3.72;;
43700;SDS011;58809;47.984;7.964;2023-03-17T10:31:47;4.72;;;3.10;;
43700;SDS011;58809;47.984;7.964;2023-03-17T10:34:49;2.50;;;2.30;;
43700;SDS011;58809;47.984;7.964;2023-03-17T10:37:51;7.80;;;4.18;;
43700;SDS011;58809;47.984;7.964;2023-03-17T10:41:12;7.90;;;5.45;;
43700;SDS011;58809;47.984;7.964;2023-03-17T10:44:20;8.98;;;4.90;;
43700;SDS011;58809;47.984;7.964;2023-03-17T10:47:39;8.15;;;5.78;;
43700;SDS011;58809;47.984;7.964;2023-03-17T10:50:47;7.95;;;5.22;;
43700;SDS011;58809;47.984;7.964;2023-03-17T10:53:49;6.63;;;5.57;;
43700;SDS011;58809;47.984;7.964;2023-03-17T10:57:04;13.83;;;6.30;;
43700;SDS011;58809;47.984;7.964;2023-03-17T11:00:17;7.45;;;5.05;;
43700;SDS011;58809;47.984;7.964;2023-03-17T11:03:21;10.00;;;5.38;;
43700;SDS011;58809;47.984;7.964;2023-03-17T11:06:40;8.10;;;5.05;;
43700;SDS011;58809;47.984;7.964;2023-03-17T11:09:50;7.32;;;4.60;;
43700;SDS011;58809;47.984;7.964;2023-03-17T11:13:00;7.82;;;5.07;;
43700;SDS011;58809;47.984;7.964;2023-03-17T11:16:19;7.70;;;5.45;;
43700;SDS011;58809;47.984;7.964;2023-03-17T11:19:48;7.28;;;5.28;;
43700;SDS011;58809;47.984;7.964;2023-03-17T11:29:18;6.75;;;5.15;;
43700;SDS011;58809;47.984;7.964;2023-03-17T11:46:36;9.10;;;4.35;;
43700;SDS011;58809;47.984;7.964;2023-03-17T11:49:49;6.97;;;4.10;;
43700;SDS011;58809;47.984;7.964;2023-03-17T11:53:15;8.20;;;4.63;;
43700;SDS011;58809;47.984;7.964;2023-03-17T11:56:36;6.47;;;4.07;;
43700;SDS011;58809;47.984;7.964;2023-03-17T12:03:14;6.57;;;3.78;;
43700;SDS011;58809;47.984;7.964;2023-03-17T12:06:25;7.20;;;4.30;;
43700;SDS011;58809;47.984;7.964;2023-03-17T12:09:40;4.35;;;3.55;;
43700;SDS011;58809;47.984;7.964;2023-03-17T12:12:48;6.18;;;3.40;;
43700;SDS011;58809;47.984;7.964;2023-03-17T12:16:01;5.22;;;3.85;;
43700;SDS011;58809;47.984;7.964;2023-03-17T12:19:10;5.60;;;3.50;;
43700;SDS011;58809;47.984;7.964;2023-03-17T12:22:23;5.03;;;3.30;;
43700;SDS011;58809;47.984;7.964;2023-03-17T12:25:31;3.75;;;3.30;;
43700;SDS011;58809;47.984;7.964;2023-03-17T12:29:03;6.63;;;3.08;;
43700;SDS011;58809;47.984;7.964;2023-03-17T12:32:10;5.72;;;2.92;;
43700;SDS011;58809;47.984;7.964;2023-03-17T12:35:29;5.55;;;3.47;;
43700;SDS011;58809;47.984;7.964;2023-03-17T12:38:37;5.30;;;2.92;;
43700;SDS011;58809;47.984;7.964;2023-03-17T12:48:35;5.65;;;2.90;;
43700;SDS011;58809;47.984;7.964;2023-03-17T12:55:13;4.38;;;3.20;;
43700;SDS011;58809;47.984;7.964;2023-03-17T13:01:46;5.05;;;3.28;;
43700;SDS011;58809;47.984;7.964;2023-03-17T13:04:56;6.65;;;3.50;;
43700;SDS011;58809;47.984;7.964;2023-03-17T13:08:03;5.20;;;3.15;;
43700;SDS011;58809;47.984;7.964;2023-03-17T13:11:15;7.93;;;3.65;;
43700;SDS011;58809;47.984;7.964;2023-03-17T13:17:42;5.47;;;3.15;;
43700;SDS011;58809;47.984;7.964;2023-03-17T13:26:58;6.30;;;3.20;;
43700;SDS011;58809;47.984;7.964;2023-03-17T13:33:30;6.43;;;3.40;;
43700;SDS011;58809;47.984;7.964;2023-03-17T13:36:44;6.60;;;3.85;;
43700;SDS011;58809;47.984;7.964;2023-03-17T13:40:03;6.15;;;3.60;;
43700;SDS011;58809;47.984;7.964;2023-03-17T13:46:46;5.40;;;3.95;;
43700;SDS011;58809;47.984;7.964;2023-03-17T13:49:49;5.73;;;3.50;;
43700;SDS011;58809;47.984;7.964;2023-03-17T13:56:15;5.88;;;3.63;;
43700;SDS011;58809;47.984;7.964;2023-03-17T13:59:25;4.57;;;3.40;;
43700;SDS011;58809;47.984;7.964;2023-03-17T14:02:33;5.28;;;3.88;;
43700;SDS011;58809;47.984;7.964;2023-03-17T14:05:39;4.38;;;3.75;;
43700;SDS011;58809;47.984;7.964;2023-03-17T14:09:02;5.72;;;3.50;;
43700;SDS011;58809;47.984;7.964;2023-03-17T14:12:18;6.53;;;3.47;;
43700;SDS011;58809;47.984;7.964;2023-03-17T14:15:44;6.28;;;3.30;;
43700;SDS011;58809;47.984;7.964;2023-03-17T14:18:51;5.30;;;3.47;;
43700;SDS011;58809;47.984;7.964;2023-03-17T14:22:03;4.20;;;3.17;;
43700;SDS011;58809;47.984;7.964;2023-03-17T14:25:23;7.78;;;4.78;;
43700;SDS011;58809;47.984;7.964;2023-03-17T14:28:29;5.07;;;4.22;;
43700;SDS011;58809;47.984;7.964;2023-03-17T14:31:33;6.68;;;3.60;;
43700;SDS011;58809;47.984;7.964;2023-03-17T14:34:40;5.97;;;3.42;;
43700;SDS011;58809;47.984;7.964;2023-03-17T14:37:43;4.72;;;3.22;;
43700;SDS011;58809;47.984;7.964;2023-03-17T14:40:45;6.55;;;3.47;;
43700;SDS011;58809;47.984;7.964;2023-03-17T14:43:48;4.30;;;3.13;;
43700;SDS011;58809;47.984;7.964;2023-03-17T14:46:59;5.45;;;3.10;;
43700;SDS011;58809;47.984;7.964;2023-03-17T14:50:15;3.40;;;2.80;;
43700;SDS011;58809;47.984;7.964;2023-03-17T14:53:22;5.68;;;2.88;;
43700;SDS011;58809;47.984;7.964;2023-03-17T14:56:26;3.47;;;2.50;;
43700;SDS011;58809;47.984;7.964;2023-03-17T14:59:54;4.30;;;2.85;;
43700;SDS011;58809;47.984;7.964;2023-03-17T15:03:23;4.43;;;2.80;;
43700;SDS011;58809;47.984;7.964;2023-03-17T15:06:28;4.72;;;3.00;;
43700;SDS011;58809;47.984;7.964;2023-03-17T15:12:36;4.60;;;3.22;;
43700;SDS011;58809;47.984;7.964;2023-03-17T15:15:39;4.82;;;3.25;;
43700;SDS011;58809;47.984;7.964;2023-03-17T15:18:42;5.75;;;3.60;;
43700;SDS011;58809;47.984;7.964;2023-03-17T15:21:44;6.97;;;3.83;;
43700;SDS011;58809;47.984;7.964;2023-03-17T15:24:50;7.15;;;3.38;;
43700;SDS011;58809;47.984;7.964;2023-03-17T15:28:12;7.55;;;3.83;;
43700;SDS011;58809;47.984;7.964;2023-03-17T15:31:15;7.05;;;3.97;;
43700;SDS011;58809;47.984;7.964;2023-03-17T15:34:16;5.78;;;3.20;;
43700;SDS011;58809;47.984;7.964;2023-03-17T15:37:20;7.18;;;3.72;;
43700;SDS011;58809;47.984;7.964;2023-03-17T15:40:26;3.42;;;3.03;;
43700;SDS011;58809;47.984;7.964;2023-03-17T15:43:28;6.47;;;3.03;;
43700;SDS011;58809;47.984;7.964;2023-03-17T15:46:29;5.05;;;3.00;;
43700;SDS011;58809;47.984;7.964;2023-03-17T15:49:32;5.70;;;3.10;;
43700;SDS011;58809;47.984;7.964;2023-03-17T15:52:35;6.47;;;2.92;;
43700;SDS011;58809;47.984;7.964;2023-03-17T15:55:36;7.38;;;3.70;;
43700;SDS011;58809;47.984;7.964;2023-03-17T15:58:38;4.65;;;3.00;;
43700;SDS011;58809;47.984;7.964;2023-03-17T16:01:39;8.88;;;3.08;;
43700;SDS011;58809;47.984;7.964;2023-03-17T16:04:41;5.38;;;2.47;;
43700;SDS011;58809;47.984;7.964;2023-03-17T16:07:43;4.10;;;3.08;;
43700;SDS011;58809;47.984;7.964;2023-03-17T16:10:45;4.85;;;2.88;;
43700;SDS011;58809;47.984;7.964;2023-03-17T16:13:47;3.90;;;2.95;;
43700;SDS011;58809;47.984;7.964;2023-03-17T16:16:48;3.75;;;2.38;;
43700;SDS011;58809;47.984;7.964;2023-03-17T16:19:50;5.45;;;2.80;;
43700;SDS011;58809;47.984;7.964;2023-03-17T16:22:56;5.53;;;3.03;;
43700;SDS011;58809;47.984;7.964;2023-03-17T16:26:01;4.85;;;3.00;;
43700;SDS011;58809;47.984;7.964;2023-03-17T16:29:18;4.90;;;3.20;;
43700;SDS011;58809;47.984;7.964;2023-03-17T16:32:22;8.10;;;3.00;;
43700;SDS011;58809;47.984;7.964;2023-03-17T16:35:24;5.95;;;3.38;;
43700;SDS011;58809;47.984;7.964;2023-03-17T16:38:26;5.03;;;3.58;;
43700;SDS011;58809;47.984;7.964;2023-03-17T16:41:30;6.65;;;3.25;;
43700;SDS011;58809;47.984;7.964;2023-03-17T16:44:34;7.43;;;3.08;;
43700;SDS011;58809;47.984;7.964;2023-03-17T16:47:36;6.22;;;3.30;;
43700;SDS011;58809;47.984;7.964;2023-03-17T16:50:38;5.97;;;2.72;;
43700;SDS011;58809;47.984;7.964;2023-03-17T16:53:39;6.60;;;3.58;;
43700;SDS011;58809;47.984;7.964;2023-03-17T16:56:41;4.93;;;2.67;;
43700;SDS011;58809;47.984;7.964;2023-03-17T16:59:43;12.27;;;6.10;;
43700;SDS011;58809;47.984;7.964;2023-03-17T17:02:44;14.75;;;7.68;;
43700;SDS011;58809;47.984;7.964;2023-03-17T17:05:49;10.00;;;6.75;;
43700;SDS011;58809;47.984;7.964;2023-03-17T17:08:51;7.22;;;3.75;;
43700;SDS011;58809;47.984;7.964;2023-03-17T17:11:53;5.20;;;3.35;;
43700;SDS011;58809;47.984;7.964;2023-03-17T17:14:54;6.32;;;4.93;;
43700;SDS011;58809;47.984;7.964;2023-03-17T17:17:57;6.43;;;3.67;;
43700;SDS011;58809;47.984;7.964;2023-03-17T17:21:01;7.05;;;3.70;;
43700;SDS011;58809;47.984;7.964;2023-03-17T17:24:03;8.00;;;4.68;;
43700;SDS011;58809;47.984;7.964;2023-03-17T17:27:05;6.28;;;4.47;;
43700;SDS011;58809;47.984;7.964;2023-03-17T17:30:08;9.88;;;5.65;;
43700;SDS011;58809;47.984;7.964;2023-03-17T17:33:11;8.27;;;5.25;;
43700;SDS011;58809;47.984;7.964;2023-03-17T17:36:14;6.95;;;5.10;;
43700;SDS011;58809;47.984;7.964;2023-03-17T17:39:16;13.27;;;6.90;;
43700;SDS011;58809;47.984;7.964;2023-03-17T17:42:18;10.55;;;5.65;;
43700;SDS011;58809;47.984;7.964;2023-03-17T17:45:20;9.30;;;5.90;;
43700;SDS011;58809;47.984;7.964;2023-03-17T17:48:23;9.98;;;5.97;;
43700;SDS011;58809;47.984;7.964;2023-03-17T17:51:26;9.05;;;5.90;;
43700;SDS011;58809;47.984;7.964;2023-03-17T17:54:28;8.50;;;5.15;;
43700;SDS011;58809;47.984;7.964;2023-03-17T17:57:30;7.25;;;5.15;;
43700;SDS011;58809;47.984;7.964;2023-03-17T18:00:32;8.57;;;5.00;;
43700;SDS011;58809;47.984;7.964;2023-03-17T18:03:33;7.53;;;5.00;;
43700;SDS011;58809;47.984;7.964;2023-03-17T18:06:35;11.38;;;7.88;;
43700;SDS011;58809;47.984;7.964;2023-03-17T18:09:37;18.50;;;9.57;;
43700;SDS011;58809;47.984;7.964;2023-03-17T18:12:38;8.18;;;5.80;;
43700;SDS011;58809;47.984;7.964;2023-03-17T18:15:40;10.93;;;5.97;;
43700;SDS011;58809;47.984;7.964;2023-03-17T18:18:41;10.35;;;5.80;;
43700;SDS011;58809;47.984;7.964;2023-03-17T18:21:45;11.18;;;5.90;;
43700;SDS011;58809;47.984;7.964;2023-03-17T18:24:48;8.55;;;5.32;;
43700;SDS011;58809;47.984;7.964;2023-03-17T18:27:50;8.65;;;5.05;;
43700;SDS011;58809;47.984;7.964;2023-03-17T18:30:51;7.50;;;4.85;;
43700;SDS011;58809;47.984;7.964;2023-03-17T18:33:56;7.93;;;4.90;;
43700;SDS011;58809;47.984;7.964;2023-03-17T18:36:59;6.88;;;4.93;;
43700;SDS011;58809;47.984;7.964;2023-03-17T18:40:02;7.47;;;5.13;;
43700;SDS011;58809;47.984;7.964;2023-03-17T18:43:17;9.63;;;4.93;;
43700;SDS011;58809;47.984;7.964;2023-03-17T18:46:19;7.80;;;5.20;;
43700;SDS011;58809;47.984;7.964;2023-03-17T18:49:20;6.57;;;4.95;;
43700;SDS011;58809;47.984;7.964;2023-03-17T18:52:29;8.23;;;5.10;;
43700;SDS011;58809;47.984;7.964;2023-03-17T18:55:35;7.28;;;5.03;;
43700;SDS011;58809;47.984;7.964;2023-03-17T18:58:36;6.47;;;5.78;;
43700;SDS011;58809;47.984;7.964;2023-03-17T19:01:38;8.20;;;5.45;;
43700;SDS011;58809;47.984;7.964;2023-03-17T19:04:43;6.78;;;5.07;;
43700;SDS011;58809;47.984;7.964;2023-03-17T19:07:47;8.00;;;5.00;;
43700;SDS011;58809;47.984;7.964;2023-03-17T19:10:48;7.90;;;5.70;;
43700;SDS011;58809;47.984;7.964;2023-03-17T19:13:50;7.80;;;4.47;;
43700;SDS011;58809;47.984;7.964;2023-03-17T19:16:52;6.35;;;4.60;;
43700;SDS011;58809;47.984;7.964;2023-03-17T19:19:54;6.80;;;4.57;;
43700;SDS011;58809;47.984;7.964;2023-03-17T19:22:57;7.43;;;4.60;;
43700;SDS011;58809;47.984;7.964;2023-03-17T19:26:00;8.80;;;4.30;;
43700;SDS011;58809;47.984;7.964;2023-03-17T19:29:02;7.07;;;4.88;;
43700;SDS011;58809;47.984;7.964;2023-03-17T19:32:03;7.32;;;3.97;;
43700;SDS011;58809;47.984;7.964;2023-03-17T19:35:06;8.77;;;4.82;;
43700;SDS011;58809;47.984;7.964;2023-03-17T19:38:09;7.53;;;4.55;;
43700;SDS011;58809;47.984;7.964;2023-03-17T19:41:11;8.98;;;4.53;;
43700;SDS011;58809;47.984;7.964;2023-03-17T19:44:13;7.60;;;4.55;;
43700;SDS011;58809;47.984;7.964;2023-03-17T19:47:15;7.47;;;4.50;;